createdAt,value
2022-12-24T00:00:12.416Z,97656.03
2022-12-24T00:02:41.320Z,97670.97
2022-12-24T00:05:11.852Z,97668.06
2022-12-24T00:07:41.693Z,97671.81
2022-12-24T00:10:12.084Z,97675.34
2022-12-24T00:12:40.911Z,97680.38
2022-12-24T00:15:12.670Z,97679.28
2022-12-24T00:17:41.477Z,97687.06
2022-12-24T00:20:11.723Z,97694.75
2022-12-24T00:22:40.476Z,97695.06
2022-12-24T00:25:10.296Z,97691.06
2022-12-24T00:27:39.023Z,97688.94
2022-12-24T00:30:12.657Z,97683.63
2022-12-24T00:32:41.484Z,97691.09
2022-12-24T00:35:10.926Z,97692.44
2022-12-24T00:37:39.645Z,97690.34
2022-12-24T00:40:10.521Z,97695.69
2022-12-24T00:42:39.271Z,97694.88
2022-12-24T00:45:11.301Z,97699.91
2022-12-24T00:47:40.199Z,97706.28
2022-12-24T00:50:10.502Z,97713.75
2022-12-24T00:52:39.427Z,97717.19
2022-12-24T00:55:10.212Z,97710.75
2022-12-24T00:57:39.035Z,97720.88
2022-12-24T01:00:11.984Z,97721.69
2022-12-24T01:02:40.909Z,97721.16
2022-12-24T01:05:12.075Z,97723.03
2022-12-24T01:07:44.809Z,97717.19
2022-12-24T01:10:15.909Z,97718.25
2022-12-24T01:12:46.009Z,97717.69
2022-12-24T01:15:16.893Z,97711.59
2022-12-24T01:17:45.744Z,97714.78
2022-12-24T01:20:18.137Z,97736.16
2022-12-24T01:22:47.377Z,97739.06
2022-12-24T01:25:16.504Z,97747.66
2022-12-24T01:27:45.275Z,97748.94
2022-12-24T01:30:17.353Z,97760.44
2022-12-24T01:32:46.116Z,97753.78
2022-12-24T01:35:14.920Z,97764.16
2022-12-24T01:37:44.632Z,97765.28
2022-12-24T01:40:36.339Z,97764.75
2022-12-24T01:43:28.540Z,97770.41
2022-12-24T01:46:01.122Z,97779.75
2022-12-24T01:48:41.577Z,97771.50
2022-12-24T01:51:20.472Z,97777.41
2022-12-24T01:53:55.390Z,97776.06
2022-12-24T01:56:25.316Z,97786.75
2022-12-24T01:59:02.022Z,97782.47
2022-12-24T02:01:32.340Z,97779.00
2022-12-24T02:04:03.466Z,97786.47
2022-12-24T02:06:32.211Z,97791.88
2022-12-24T02:09:01.128Z,97794.22
2022-12-24T02:11:31.531Z,97793.16
2022-12-24T02:14:04.133Z,97797.44
2022-12-24T02:16:48.876Z,97818.06
2022-12-24T02:20:00.133Z,97801.75
2022-12-24T02:22:48.114Z,97813.03
2022-12-24T02:25:45.476Z,97814.38
2022-12-24T02:28:36.494Z,97811.91
2022-12-24T02:31:13.259Z,97816.19
2022-12-24T02:33:51.654Z,97824.22
2022-12-24T02:36:29.517Z,97823.66
2022-12-24T02:39:05.751Z,97830.66
2022-12-24T02:41:52.825Z,97831.16
2022-12-24T02:44:25.983Z,97842.97
2022-12-24T02:46:58.648Z,97841.84
2022-12-24T02:49:27.774Z,97850.88
2022-12-24T02:51:56.605Z,97848.72
2022-12-24T02:54:25.492Z,97862.94
2022-12-24T02:57:15.129Z,97861.34
2022-12-24T03:00:03.966Z,97874.50
2022-12-24T03:02:56.598Z,97871.81
2022-12-24T03:05:38.009Z,97875.84
2022-12-24T03:08:15.559Z,97878.25
2022-12-24T03:10:56.204Z,97885.41
2022-12-24T03:18:30.922Z,97896.16
2022-12-24T03:21:07.631Z,97908.66
2022-12-24T03:23:35.931Z,97897.41
2022-12-24T03:26:11.335Z,97895.59
2022-12-24T03:28:42.830Z,97895.34
2022-12-24T03:31:13.369Z,97908.22
2022-12-24T03:33:44.428Z,97909.81
2022-12-24T03:36:13.838Z,97909.00
2022-12-24T03:38:42.957Z,97903.94
2022-12-24T03:41:11.767Z,97907.41
2022-12-24T03:43:40.529Z,97904.75
2022-12-24T03:46:10.626Z,97913.28
2022-12-24T03:48:39.443Z,97915.13
2022-12-24T03:51:20.288Z,97918.84
2022-12-24T03:53:49.422Z,97917.28
2022-12-24T03:56:18.259Z,97922.13
2022-12-24T03:58:47.021Z,97912.97
2022-12-24T04:01:16.787Z,97923.66
2022-12-24T04:03:46.486Z,97922.81
2022-12-24T04:06:19.021Z,97937.25
2022-12-24T04:08:48.057Z,97932.22
2022-12-24T04:11:19.146Z,97943.44
2022-12-24T04:13:48.028Z,97950.38
2022-12-24T04:16:18.270Z,97963.75
2022-12-24T04:18:47.048Z,97953.34
2022-12-24T04:21:17.884Z,97957.06
2022-12-24T04:23:47.971Z,97956.31
2022-12-24T04:26:17.014Z,97966.00
2022-12-24T04:28:46.145Z,97964.94
2022-12-24T04:31:18.168Z,97970.34
2022-12-24T04:33:47.802Z,97987.38
2022-12-24T04:36:20.766Z,97991.41
2022-12-24T04:38:50.477Z,97983.94
2022-12-24T04:41:24.261Z,97996.00
2022-12-24T04:43:55.226Z,97998.69
2022-12-24T04:46:27.365Z,98012.03
2022-12-24T04:48:56.521Z,97994.94
2022-12-24T04:51:28.289Z,98017.84
2022-12-24T04:53:58.467Z,98006.03
2022-12-24T04:56:30.662Z,98007.09
2022-12-24T04:59:01.520Z,98010.31
2022-12-24T05:01:33.506Z,98021.56
2022-12-24T05:04:03.224Z,98022.88
2022-12-24T05:06:34.397Z,98033.38
2022-12-24T05:09:03.753Z,98031.75
2022-12-24T05:11:33.415Z,98033.63
2022-12-24T05:14:04.455Z,98030.63
2022-12-24T05:16:33.252Z,98042.44
2022-12-24T05:19:02.068Z,98046.19
2022-12-24T05:21:32.228Z,98052.06
2022-12-24T05:24:18.141Z,98064.63
2022-12-24T05:26:51.419Z,98058.69
2022-12-24T05:29:20.261Z,98062.91
2022-12-24T05:31:49.294Z,98060.16
2022-12-24T05:34:19.156Z,98068.75
2022-12-24T05:36:49.432Z,98072.16
2022-12-24T05:39:19.777Z,98068.94
2022-12-24T05:41:48.619Z,98071.56
2022-12-24T05:44:18.104Z,98077.38
2022-12-24T05:46:47.334Z,98077.88
2022-12-24T05:49:16.420Z,98072.53
2022-12-24T05:51:45.429Z,98084.84
2022-12-24T05:54:15.635Z,98086.44
2022-12-24T05:56:44.406Z,98092.59
2022-12-24T05:59:13.482Z,98109.44
2022-12-24T06:01:45.701Z,98101.94
2022-12-24T06:04:14.716Z,98104.59
2022-12-24T06:06:43.589Z,98108.00
2022-12-24T06:09:12.399Z,98128.50
2022-12-24T06:11:42.738Z,98133.91
2022-12-24T06:14:11.549Z,98132.03
2022-12-24T06:16:40.423Z,98133.72
2022-12-24T06:19:09.266Z,98143.38
2022-12-24T06:21:38.095Z,98141.19
2022-12-24T06:24:07.663Z,98149.50
2022-12-24T06:26:36.484Z,98150.56
2022-12-24T06:29:07.382Z,98154.84
2022-12-24T06:31:37.301Z,98153.75
2022-12-24T06:34:06.099Z,98172.44
2022-12-24T06:36:34.817Z,98165.72
2022-12-24T06:39:03.645Z,98169.78
2022-12-24T06:41:32.830Z,98178.91
2022-12-24T06:44:02.051Z,98168.78
2022-12-24T06:46:32.320Z,98174.06
2022-12-24T06:49:01.177Z,98178.28
2022-12-24T06:51:29.864Z,98193.31
2022-12-24T06:53:58.689Z,98189.84
2022-12-24T06:56:27.399Z,98190.41
2022-12-24T06:59:00.192Z,98194.94
2022-12-24T07:01:35.200Z,98200.78
2022-12-24T07:04:04.221Z,98210.16
2022-12-24T07:06:35.133Z,98209.53
2022-12-24T07:09:04.031Z,98204.66
2022-12-24T07:11:33.024Z,98209.09
2022-12-24T07:14:01.797Z,98211.78
2022-12-24T07:16:30.860Z,98219.16
2022-12-24T07:19:01.523Z,98222.31
2022-12-24T07:21:30.468Z,98229.19
2022-12-24T07:23:59.960Z,98236.72
2022-12-24T07:26:30.243Z,98250.28
2022-12-24T07:28:59.265Z,98254.84
2022-12-24T07:31:28.434Z,98251.50
2022-12-24T07:33:57.584Z,98252.75
2022-12-24T07:36:28.427Z,98245.84
2022-12-24T07:38:57.338Z,98253.69
2022-12-24T07:41:26.366Z,98263.59
2022-12-24T07:43:55.254Z,98282.72
2022-12-24T07:46:24.380Z,98290.72
2022-12-24T07:48:53.229Z,98274.09
2022-12-24T07:51:22.442Z,98288.84
2022-12-24T07:53:52.643Z,98285.13
2022-12-24T07:56:21.376Z,98298.41
2022-12-24T07:58:52.256Z,98301.41
2022-12-24T08:01:21.283Z,98299.63
2022-12-24T08:03:51.568Z,98307.06
2022-12-24T08:06:20.447Z,98310.22
2022-12-24T08:08:49.329Z,98304.53
2022-12-24T08:11:20.582Z,98312.31
2022-12-24T08:13:50.482Z,98309.41
2022-12-24T08:16:20.387Z,98316.22
2022-12-24T08:18:51.320Z,98306.50
2022-12-24T08:21:20.438Z,98315.31
2022-12-24T08:23:54.263Z,98326.72
2022-12-24T08:26:26.955Z,98328.84
2022-12-24T08:28:55.849Z,98323.25
2022-12-24T08:31:28.809Z,98328.69
2022-12-24T08:33:59.216Z,98332.25
2022-12-24T08:36:28.245Z,98337.13
2022-12-24T08:38:57.017Z,98321.41
2022-12-24T08:41:27.236Z,98331.47
2022-12-24T08:43:56.033Z,98340.03
2022-12-24T08:46:24.957Z,98360.13
2022-12-24T08:48:53.827Z,98347.09
2022-12-24T08:51:22.820Z,98359.66
2022-12-24T08:53:51.577Z,98373.34
2022-12-24T08:56:20.556Z,98378.09
2022-12-24T08:58:51.040Z,98372.19
2022-12-24T09:01:22.601Z,98380.69
2022-12-24T09:03:55.667Z,98382.81
2022-12-24T09:06:26.106Z,98385.38
2022-12-24T09:08:55.087Z,98403.13
2022-12-24T09:11:23.880Z,98395.09
2022-12-24T09:13:54.160Z,98397.88
2022-12-24T09:16:24.544Z,98412.47
2022-12-24T09:18:55.368Z,98412.31
2022-12-24T09:21:26.164Z,98410.53
2022-12-24T09:23:55.199Z,98415.81
2022-12-24T09:26:27.452Z,98410.59
2022-12-24T09:29:02.420Z,98426.09
2022-12-24T09:31:31.534Z,98420.34
2022-12-24T09:34:04.508Z,98426.41
2022-12-24T09:36:33.792Z,98429.22
2022-12-24T09:39:03.092Z,98436.25
2022-12-24T09:41:51.852Z,98446.38
2022-12-24T09:44:40.479Z,98449.53
2022-12-24T09:47:24.190Z,98453.59
2022-12-24T09:50:00.977Z,98459.75
2022-12-24T09:52:37.901Z,98438.38
2022-12-24T09:55:23.126Z,98458.69
2022-12-24T09:57:55.994Z,98466.16
2022-12-24T10:00:30.796Z,98467.75
2022-12-24T10:03:00.170Z,98474.16
2022-12-24T10:05:42.807Z,98478.56
2022-12-24T10:08:27.725Z,98483.41
2022-12-24T10:11:04.405Z,98477.09
2022-12-24T10:13:55.426Z,98489.75
2022-12-24T10:16:38.703Z,98488.00
2022-12-24T10:19:18.444Z,98495.25
2022-12-24T10:22:08.768Z,98487.25
2022-12-24T10:24:51.812Z,98498.44
2022-12-24T10:27:29.447Z,98499.97
2022-12-24T10:30:13.257Z,98492.19
2022-12-24T10:32:51.777Z,98503.94
2022-12-24T10:35:28.119Z,98506.81
2022-12-24T10:37:58.227Z,98516.53
2022-12-24T10:40:36.831Z,98508.34
2022-12-24T10:43:16.324Z,98515.16
2022-12-24T10:45:51.042Z,98506.34
2022-12-24T10:48:29.436Z,98510.06
2022-12-24T10:51:04.782Z,98509.72
2022-12-24T10:53:43.307Z,98516.38
2022-12-24T10:56:16.549Z,98522.75
2022-12-24T10:58:46.682Z,98534.34
2022-12-24T11:01:15.849Z,98536.97
2022-12-24T11:03:46.334Z,98540.00
2022-12-24T11:06:21.176Z,98533.72
2022-12-24T11:08:50.157Z,98545.56
2022-12-24T11:11:21.877Z,98536.97
2022-12-24T11:13:57.650Z,98537.94
2022-12-24T11:16:30.744Z,98538.25
2022-12-24T11:19:05.425Z,98550.72
2022-12-24T11:21:39.083Z,98545.44
2022-12-24T11:24:25.892Z,98563.50
2022-12-24T11:26:54.991Z,98570.47
2022-12-24T11:29:26.752Z,98569.03
2022-12-24T11:32:19.003Z,98573.06
2022-12-24T11:34:49.807Z,98566.75
2022-12-24T11:37:23.264Z,98558.16
2022-12-24T11:39:55.675Z,98565.22
2022-12-24T11:42:32.805Z,98564.09
2022-12-24T11:45:05.545Z,98570.59
2022-12-24T11:47:37.779Z,98568.22
2022-12-24T11:50:31.851Z,98561.31
2022-12-24T11:53:12.398Z,98569.16
2022-12-24T11:55:48.051Z,98568.06
2022-12-24T11:58:27.160Z,98566.75
2022-12-24T12:01:15.788Z,98586.63
2022-12-24T12:03:49.930Z,98572.19
2022-12-24T12:06:40.322Z,98574.78
2022-12-24T12:09:16.755Z,98578.41
2022-12-24T12:11:52.934Z,98585.38
2022-12-24T12:14:29.427Z,98584.97
2022-12-24T12:17:05.269Z,98590.41
2022-12-24T12:19:45.007Z,98586.56
2022-12-24T12:22:29.488Z,98587.44
2022-12-24T12:25:01.203Z,98585.00
2022-12-24T12:27:39.110Z,98589.97
2022-12-24T12:30:17.897Z,98589.88
2022-12-24T12:32:55.509Z,98589.88
2022-12-24T12:35:31.510Z,98584.09
2022-12-24T12:38:10.617Z,98593.97
2022-12-24T12:41:07.059Z,98589.19
2022-12-24T12:44:01.216Z,98595.28
2022-12-24T12:46:47.763Z,98605.16
2022-12-24T12:49:33.905Z,98603.16
2022-12-24T12:52:15.473Z,98603.84
2022-12-24T12:55:07.425Z,98603.44
2022-12-24T12:57:41.165Z,98610.88
2022-12-24T13:00:14.381Z,98611.13
2022-12-24T13:03:40.113Z,98587.94
2022-12-24T13:06:47.605Z,98597.41
2022-12-24T13:10:03.135Z,98592.63
2022-12-24T13:13:07.621Z,98595.31
2022-12-24T13:16:23.677Z,98596.53
2022-12-24T13:19:10.308Z,98598.34
2022-12-24T13:21:48.981Z,98587.09
2022-12-24T13:24:22.558Z,98593.41
2022-12-24T13:27:07.876Z,98602.94
2022-12-24T13:29:52.594Z,98597.59
2022-12-24T13:32:47.404Z,98608.78
2022-12-24T13:35:38.715Z,98599.28
2022-12-24T13:38:47.205Z,98618.16
2022-12-24T13:41:59.043Z,98623.00
2022-12-24T13:44:36.276Z,98608.44
2022-12-24T13:47:32.388Z,98615.06
2022-12-24T13:50:24.857Z,98616.88
2022-12-24T13:52:55.671Z,98614.50
2022-12-24T13:55:25.163Z,98617.91
2022-12-24T13:58:01.764Z,98625.13
2022-12-24T14:00:42.815Z,98621.22
2022-12-24T14:03:29.115Z,98628.06
2022-12-24T14:06:02.349Z,98634.28
2022-12-24T14:08:38.957Z,98636.13
2022-12-24T14:11:13.964Z,98635.34
2022-12-24T14:14:29.012Z,98642.78
2022-12-24T14:17:02.550Z,98653.81
2022-12-24T14:19:42.384Z,98644.91
2022-12-24T14:22:29.781Z,98657.34
2022-12-24T14:25:03.397Z,98663.66
2022-12-24T14:27:45.852Z,98674.47
2022-12-24T14:30:22.560Z,98677.03
2022-12-24T14:32:54.220Z,98673.75
2022-12-24T14:35:27.466Z,98680.66
2022-12-24T14:38:02.782Z,98684.25
2022-12-24T14:40:36.166Z,98689.59
2022-12-24T14:43:21.909Z,98690.66
2022-12-24T14:46:00.875Z,98690.53
2022-12-24T14:48:40.405Z,98696.81
2022-12-24T14:51:18.947Z,98705.88
2022-12-24T14:54:32.964Z,98703.78
2022-12-24T14:57:31.957Z,98708.19
2022-12-24T15:00:03.389Z,98714.34
2022-12-24T15:02:44.359Z,98715.63
2022-12-24T15:05:19.831Z,98709.34
2022-12-24T15:07:59.284Z,98713.78
2022-12-24T15:10:35.775Z,98720.38
2022-12-24T15:13:08.642Z,98716.88
2022-12-24T15:15:38.056Z,98726.66
2022-12-24T15:18:08.890Z,98730.38
2022-12-24T15:20:39.309Z,98732.66
2022-12-24T15:23:08.066Z,98734.19
2022-12-24T15:25:36.879Z,98739.88
2022-12-24T15:28:18.743Z,98728.72
2022-12-24T15:30:48.333Z,98742.44
2022-12-24T15:33:18.122Z,98740.34
2022-12-24T15:35:55.051Z,98741.28
2022-12-24T15:38:32.822Z,98747.88
2022-12-24T15:41:06.155Z,98757.53
2022-12-24T15:43:39.732Z,98763.44
2022-12-24T15:46:09.395Z,98766.69
2022-12-24T15:48:39.188Z,98764.72
2022-12-24T15:51:09.479Z,98766.34
2022-12-24T15:53:44.844Z,98777.03
2022-12-24T15:56:28.597Z,98779.34
2022-12-24T15:59:31.273Z,98779.09
2022-12-24T16:02:35.667Z,98783.63
2022-12-24T16:05:35.919Z,98788.41
2022-12-24T16:08:30.645Z,98780.16
2022-12-24T16:11:19.239Z,98784.25
2022-12-24T16:14:14.607Z,98785.50
2022-12-24T16:16:49.170Z,98790.03
2022-12-24T16:19:24.205Z,98800.56
2022-12-24T16:21:56.279Z,98807.44
2022-12-24T16:24:32.259Z,98807.44
2022-12-24T16:27:01.660Z,98810.53
2022-12-24T16:29:30.747Z,98808.78
2022-12-24T16:32:00.847Z,98813.53
2022-12-24T16:34:32.523Z,98814.88
2022-12-24T16:37:02.606Z,98826.47
2022-12-24T16:39:36.112Z,98824.69
2022-12-24T16:42:23.732Z,98834.88
2022-12-24T16:44:55.594Z,98831.66
2022-12-24T16:47:33.617Z,98833.44
2022-12-24T16:50:07.459Z,98837.94
2022-12-24T16:52:36.595Z,98832.84
2022-12-24T16:55:07.721Z,98832.25
2022-12-24T16:57:41.024Z,98837.78
2022-12-24T17:00:16.496Z,98838.03
2022-12-24T17:02:45.710Z,98845.88
2022-12-24T17:05:19.037Z,98844.09
2022-12-24T17:07:47.859Z,98840.41
2022-12-24T17:10:18.484Z,98843.31
2022-12-24T17:12:47.744Z,98845.41
2022-12-24T17:15:17.042Z,98846.81
2022-12-24T17:17:48.005Z,98843.78
2022-12-24T17:20:23.662Z,98856.50
2022-12-24T17:22:53.231Z,98865.53
2022-12-24T17:25:23.736Z,98868.47
2022-12-24T17:27:53.400Z,98867.28
2022-12-24T17:30:22.528Z,98868.47
2022-12-24T17:32:52.864Z,98862.34
2022-12-24T17:35:21.949Z,98857.25
2022-12-24T17:37:51.624Z,98863.63
2022-12-24T17:40:22.650Z,98863.69
2022-12-24T17:42:53.371Z,98866.34
2022-12-24T17:45:23.466Z,98865.75
2022-12-24T17:47:57.542Z,98878.47
2022-12-24T17:50:27.681Z,98874.78
2022-12-24T17:52:56.700Z,98886.25
2022-12-24T17:55:27.606Z,98881.56
2022-12-24T17:58:02.305Z,98887.94
2022-12-24T18:00:33.358Z,98889.56
2022-12-24T18:03:03.379Z,98888.53
2022-12-24T18:05:35.154Z,98892.06
2022-12-24T18:08:04.112Z,98899.25
2022-12-24T18:10:35.440Z,98913.81
2022-12-24T18:13:05.205Z,98919.16
2022-12-24T18:15:37.969Z,98916.47
2022-12-24T18:18:09.175Z,98916.09
2022-12-24T18:20:46.012Z,98920.19
2022-12-24T18:23:15.948Z,98915.31
2022-12-24T18:25:46.431Z,98916.53
2022-12-24T18:28:15.444Z,98917.97
2022-12-24T18:30:46.438Z,98921.88
2022-12-24T18:33:15.403Z,98920.47
2022-12-24T18:35:44.693Z,98927.03
2022-12-24T18:38:13.592Z,98933.00
2022-12-24T18:40:43.872Z,98932.22
2022-12-24T18:43:14.692Z,98935.47
2022-12-24T18:45:47.850Z,98934.22
2022-12-24T18:48:17.111Z,98938.16
2022-12-24T18:50:56.909Z,98947.19
2022-12-24T18:53:26.006Z,98943.53
2022-12-24T18:55:55.361Z,98947.22
2022-12-24T18:58:25.590Z,98950.94
2022-12-24T19:00:54.597Z,98950.34
2022-12-24T19:03:23.626Z,98957.94
2022-12-24T19:05:52.656Z,98955.47
2022-12-24T19:08:55.587Z,98966.94
2022-12-24T19:11:12.834Z,98967.56
2022-12-24T19:13:53.286Z,98969.84
2022-12-24T19:16:24.166Z,98977.25
2022-12-24T19:18:57.722Z,98976.03
2022-12-24T19:21:26.728Z,98982.59
2022-12-24T19:23:55.730Z,98982.00
2022-12-24T19:26:26.182Z,98991.16
2022-12-24T19:28:57.252Z,98994.66
2022-12-24T19:31:28.382Z,98990.00
2022-12-24T19:33:59.066Z,98985.50
2022-12-24T19:36:34.658Z,98997.75
2022-12-24T19:39:08.641Z,98995.91
2022-12-24T19:41:39.127Z,98989.56
2022-12-24T19:44:17.681Z,98994.06
2022-12-24T19:46:48.934Z,98994.47
2022-12-24T19:49:19.877Z,98999.38
2022-12-24T19:51:55.839Z,98992.41
2022-12-24T19:54:28.259Z,99003.22
2022-12-24T19:57:00.610Z,99011.41
2022-12-24T19:59:45.201Z,99003.06
2022-12-24T20:02:16.196Z,99004.69
2022-12-24T20:04:46.208Z,99017.53
2022-12-24T20:07:17.010Z,99025.13
2022-12-24T20:09:53.745Z,99026.38
2022-12-24T20:12:28.187Z,99023.09
2022-12-24T20:15:02.150Z,99025.50
2022-12-24T20:17:40.203Z,99027.56
2022-12-24T20:20:11.834Z,99033.28
2022-12-24T20:22:42.236Z,99036.53
2022-12-24T20:25:12.141Z,99034.09
2022-12-24T20:27:41.277Z,99033.69
2022-12-24T20:30:14.458Z,99035.09
2022-12-24T20:32:43.845Z,99029.97
2022-12-24T20:35:13.602Z,99031.19
2022-12-24T20:37:46.268Z,99038.94
2022-12-24T20:40:15.612Z,99045.47
2022-12-24T20:42:44.750Z,99043.06
2022-12-24T20:45:16.503Z,99040.81
2022-12-24T20:47:45.416Z,99046.13
2022-12-24T20:50:14.305Z,99048.72
2022-12-24T20:52:43.237Z,99052.03
2022-12-24T20:55:12.104Z,99051.63
2022-12-24T20:57:44.381Z,99052.25
2022-12-24T21:00:17.433Z,99050.00
2022-12-24T21:02:47.295Z,99055.28
2022-12-24T21:05:16.755Z,99058.53
2022-12-24T21:07:46.019Z,99049.56
2022-12-24T21:10:21.031Z,99044.66
2022-12-24T21:12:48.837Z,99052.78
2022-12-24T21:15:20.652Z,99050.78
2022-12-24T21:17:50.277Z,99046.88
2022-12-24T21:20:20.476Z,99053.22
2022-12-24T21:22:49.906Z,99059.75
2022-12-24T21:25:20.452Z,99060.75
2022-12-24T21:27:50.771Z,99056.06
2022-12-24T21:30:21.319Z,99054.41
2022-12-24T21:32:50.677Z,99054.22
2022-12-24T21:35:19.671Z,99061.28
2022-12-24T21:37:48.737Z,99058.63
2022-12-24T21:40:18.277Z,99058.88
2022-12-24T21:42:47.396Z,99065.97
2022-12-24T21:52:26.570Z,99069.47
2022-12-24T21:54:53.948Z,99082.19
2022-12-24T21:57:39.789Z,99087.50
2022-12-24T22:00:26.132Z,99083.78
2022-12-24T22:02:56.788Z,99090.28
2022-12-24T22:05:26.391Z,99096.81
2022-12-24T22:11:13.304Z,99095.22
2022-12-24T22:13:42.150Z,99081.78
2022-12-24T22:16:14.538Z,99089.09
2022-12-24T22:18:43.468Z,99100.94
2022-12-24T22:21:12.538Z,99103.59
2022-12-24T22:23:42.696Z,99103.75
2022-12-24T22:26:15.264Z,99108.22
2022-12-24T22:28:44.500Z,99107.03
2022-12-24T22:31:19.734Z,99110.28
2022-12-24T22:33:48.646Z,99114.34
2022-12-24T22:36:18.585Z,99122.78
2022-12-24T22:38:47.387Z,99121.19
2022-12-24T22:41:18.624Z,99116.28
2022-12-24T22:43:47.488Z,99129.16
2022-12-24T22:46:16.774Z,99146.63
2022-12-24T22:48:46.927Z,99146.06
2022-12-24T22:51:19.538Z,99137.03
2022-12-24T22:53:48.810Z,99146.00
2022-12-24T22:56:23.229Z,99139.97
2022-12-24T22:58:56.132Z,99153.00
2022-12-24T23:01:34.560Z,99160.31
2022-12-24T23:04:04.023Z,99171.56
2022-12-24T23:06:33.080Z,99167.13
2022-12-24T23:09:02.272Z,99168.41
2022-12-24T23:11:32.519Z,99169.75
2022-12-24T23:14:18.794Z,99163.03
2022-12-24T23:16:47.615Z,99171.44
2022-12-24T23:19:16.691Z,99178.50
2022-12-24T23:21:45.399Z,99187.41
2022-12-24T23:24:14.546Z,99186.72
2022-12-24T23:26:44.905Z,99189.00
2022-12-24T23:29:13.858Z,99186.72
2022-12-24T23:31:42.814Z,99183.88
2022-12-24T23:34:11.841Z,99190.38
2022-12-24T23:36:40.635Z,99183.97
2022-12-24T23:39:09.435Z,99173.84
2022-12-24T23:41:38.280Z,99174.72
2022-12-24T23:44:09.306Z,99183.66
2022-12-24T23:46:38.091Z,99198.69
2022-12-24T23:49:15.784Z,99194.78
2022-12-24T23:51:44.589Z,99202.69
2022-12-24T23:54:13.311Z,99205.16
2022-12-24T23:56:42.021Z,99202.75
2022-12-24T23:59:12.207Z,99200.34
